createdAt,value
2023-02-17T00:01:22.740Z,24.33
2023-02-17T00:03:50.923Z,25.65
2023-02-17T00:06:20.889Z,32.08
2023-02-17T00:08:49.007Z,31.40
2023-02-17T00:11:17.181Z,33.35
2023-02-17T00:13:45.157Z,35.58
2023-02-17T00:16:21.420Z,30.45
2023-02-17T00:18:54.130Z,32.13
2023-02-17T00:21:24.120Z,37.72
2023-02-17T00:23:51.902Z,32.40
2023-02-17T00:26:20.195Z,33.05
2023-02-17T00:28:48.253Z,33.63
2023-02-17T00:31:18.922Z,29.20
2023-02-17T00:33:46.344Z,27.80
2023-02-17T00:36:18.195Z,29.38
2023-02-17T00:38:47.013Z,29.98
2023-02-17T00:41:14.166Z,32.38
2023-02-17T00:43:41.241Z,31.35
2023-02-17T00:46:08.662Z,31.15
2023-02-17T00:48:36.054Z,32.47
2023-02-17T00:51:03.404Z,32.35
2023-02-17T00:53:30.471Z,29.10
2023-02-17T00:55:57.571Z,29.52
2023-02-17T00:58:24.856Z,30.20
2023-02-17T01:00:52.013Z,26.58
2023-02-17T01:03:19.526Z,30.40
2023-02-17T01:05:49.216Z,30.05
2023-02-17T01:08:18.280Z,24.05
2023-02-17T01:10:47.784Z,31.58
2023-02-17T01:13:16.325Z,27.08
2023-02-17T01:16:01.592Z,26.30
2023-02-17T01:18:28.778Z,28.58
2023-02-17T01:20:55.859Z,33.20
2023-02-17T01:23:22.918Z,31.77
2023-02-17T01:25:50.841Z,29.23
2023-02-17T01:28:21.845Z,28.92
2023-02-17T01:30:49.830Z,28.00
2023-02-17T01:33:17.103Z,32.85
2023-02-17T01:35:44.129Z,26.95
2023-02-17T01:38:11.209Z,25.30
2023-02-17T01:40:38.244Z,30.50
2023-02-17T01:43:12.047Z,29.30
2023-02-17T01:45:47.278Z,25.27
2023-02-17T01:48:21.876Z,27.50
2023-02-17T01:51:11.938Z,28.42
2023-02-17T01:53:54.829Z,29.58
2023-02-17T01:56:24.702Z,35.15
2023-02-17T01:58:58.280Z,30.45
2023-02-17T02:01:25.441Z,23.63
2023-02-17T02:03:53.556Z,27.58
2023-02-17T02:06:25.810Z,28.90
2023-02-17T02:09:06.270Z,28.10
2023-02-17T02:11:34.389Z,25.75
2023-02-17T02:14:04.726Z,31.73
2023-02-17T02:17:02.272Z,25.15
2023-02-17T02:20:02.541Z,29.77
2023-02-17T02:22:38.591Z,27.35
2023-02-17T02:25:08.878Z,25.77
2023-02-17T02:28:12.367Z,27.30
2023-02-17T02:30:42.442Z,28.60
2023-02-17T02:33:23.086Z,35.45
2023-02-17T02:35:59.886Z,29.50
2023-02-17T02:38:45.736Z,29.00
2023-02-17T02:41:15.663Z,27.08
2023-02-17T02:43:43.352Z,27.67
2023-02-17T02:46:10.737Z,36.38
2023-02-17T02:48:39.204Z,25.23
2023-02-17T02:51:28.688Z,29.55
2023-02-17T02:54:19.639Z,27.83
2023-02-17T02:56:46.600Z,26.90
2023-02-17T02:59:41.907Z,32.65
2023-02-17T03:02:33.163Z,28.40
2023-02-17T03:05:34.345Z,30.35
2023-02-17T03:08:23.716Z,28.95
2023-02-17T03:10:54.467Z,34.03
2023-02-17T03:13:22.256Z,26.00
2023-02-17T03:15:49.930Z,27.65
2023-02-17T03:18:17.556Z,28.48
2023-02-17T03:20:54.429Z,29.40
2023-02-17T03:23:21.906Z,27.90
2023-02-17T03:25:49.996Z,27.33
2023-02-17T03:28:17.093Z,28.75
2023-02-17T03:30:44.201Z,29.08
2023-02-17T03:33:11.269Z,27.95
2023-02-17T03:35:38.444Z,33.15
2023-02-17T03:38:05.487Z,27.58
2023-02-17T03:40:32.638Z,29.98
2023-02-17T03:42:59.817Z,31.98
2023-02-17T03:45:26.851Z,30.33
2023-02-17T03:47:53.875Z,29.77
2023-02-17T03:50:20.898Z,28.77
2023-02-17T03:52:47.904Z,32.78
2023-02-17T03:55:14.953Z,30.80
2023-02-17T03:57:41.964Z,29.98
2023-02-17T04:00:09.645Z,27.95
2023-02-17T04:02:36.631Z,28.95
2023-02-17T04:05:04.104Z,26.63
2023-02-17T04:07:31.155Z,28.67
2023-02-17T04:09:58.195Z,29.25
2023-02-17T04:12:25.204Z,28.65
2023-02-17T04:14:52.216Z,32.40
2023-02-17T04:17:19.237Z,30.02
2023-02-17T04:19:46.302Z,27.92
2023-02-17T04:22:13.312Z,26.60
2023-02-17T04:24:40.427Z,26.70
2023-02-17T04:27:07.778Z,37.75
2023-02-17T04:29:34.981Z,26.83
2023-02-17T04:32:02.532Z,28.73
2023-02-17T04:34:29.673Z,26.98
2023-02-17T04:36:56.666Z,28.80
2023-02-17T04:39:23.694Z,28.15
2023-02-17T04:41:50.793Z,26.45
2023-02-17T04:44:17.842Z,29.20
2023-02-17T04:46:44.889Z,27.60
2023-02-17T04:49:11.934Z,33.13
2023-02-17T04:51:38.999Z,28.17
2023-02-17T04:54:06.036Z,27.08
2023-02-17T04:56:33.029Z,25.45
2023-02-17T04:59:00.074Z,26.38
2023-02-17T05:01:27.149Z,29.35
2023-02-17T05:03:54.165Z,29.45
2023-02-17T05:06:21.171Z,22.38
2023-02-17T05:08:48.538Z,25.75
2023-02-17T05:11:15.555Z,22.73
2023-02-17T05:13:42.675Z,24.88
2023-02-17T05:16:09.868Z,26.52
2023-02-17T05:18:36.949Z,24.08
2023-02-17T05:21:04.225Z,24.60
2023-02-17T05:23:31.296Z,31.77
2023-02-17T05:25:58.374Z,22.15
2023-02-17T05:28:25.368Z,24.48
2023-02-17T05:30:52.458Z,17.88
2023-02-17T05:33:19.509Z,19.75
2023-02-17T05:35:46.624Z,17.48
2023-02-17T05:38:13.638Z,22.90
2023-02-17T05:40:40.697Z,27.10
2023-02-17T05:43:07.714Z,22.20
2023-02-17T05:45:34.780Z,21.38
2023-02-17T05:48:01.795Z,20.75
2023-02-17T05:50:28.826Z,25.00
2023-02-17T05:52:55.892Z,22.40
2023-02-17T05:55:22.991Z,28.70
2023-02-17T05:57:50.013Z,21.10
2023-02-17T06:00:17.463Z,21.50
2023-02-17T06:02:44.484Z,23.13
2023-02-17T06:05:11.751Z,22.60
2023-02-17T06:07:39.221Z,29.05
2023-02-17T06:10:07.075Z,20.13
2023-02-17T06:12:34.237Z,22.80
2023-02-17T06:15:01.311Z,20.17
2023-02-17T06:17:28.565Z,18.90
2023-02-17T06:19:55.509Z,22.95
2023-02-17T06:22:22.552Z,16.83
2023-02-17T06:24:49.654Z,20.00
2023-02-17T06:27:16.752Z,21.58
2023-02-17T06:29:44.647Z,22.73
2023-02-17T06:32:11.673Z,20.15
2023-02-17T06:34:38.853Z,31.58
2023-02-17T06:37:06.086Z,19.00
2023-02-17T06:39:33.161Z,32.35
2023-02-17T06:42:00.231Z,18.25
2023-02-17T06:44:27.713Z,22.98
2023-02-17T06:46:54.713Z,19.58
2023-02-17T06:49:21.750Z,23.67
2023-02-17T06:51:48.792Z,20.67
2023-02-17T06:54:15.888Z,16.88
2023-02-17T06:56:43.131Z,24.25
2023-02-17T06:59:10.104Z,14.82
2023-02-17T07:01:37.353Z,26.05
2023-02-17T07:04:04.617Z,17.88
2023-02-17T07:06:32.068Z,19.65
2023-02-17T07:08:59.154Z,15.20
2023-02-17T07:11:27.365Z,22.98
2023-02-17T07:13:54.480Z,14.52
2023-02-17T07:16:21.526Z,17.73
2023-02-17T07:18:48.580Z,14.07
2023-02-17T07:21:15.643Z,17.55
2023-02-17T07:23:42.668Z,15.10
2023-02-17T07:26:11.668Z,18.23
2023-02-17T07:28:39.806Z,17.17
2023-02-17T07:31:09.357Z,15.30
2023-02-17T07:33:36.891Z,13.85
2023-02-17T07:36:15.602Z,12.80
2023-02-17T07:38:43.636Z,13.48
2023-02-17T07:41:17.465Z,16.38
2023-02-17T07:43:45.716Z,13.60
2023-02-17T07:46:13.724Z,12.43
2023-02-17T07:48:41.013Z,14.57
2023-02-17T07:51:14.392Z,14.75
2023-02-17T07:53:41.447Z,16.75
2023-02-17T07:56:14.289Z,14.60
2023-02-17T07:58:43.671Z,16.63
2023-02-17T08:01:15.962Z,15.75
2023-02-17T08:03:43.513Z,13.45
2023-02-17T08:06:16.030Z,13.05
2023-02-17T08:09:01.932Z,14.50
2023-02-17T08:11:49.760Z,15.02
2023-02-17T08:14:17.506Z,14.05
2023-02-17T08:16:44.593Z,12.00
2023-02-17T08:19:11.729Z,16.02
2023-02-17T08:21:39.188Z,16.65
2023-02-17T08:24:06.641Z,14.77
2023-02-17T08:26:33.774Z,13.15
2023-02-17T08:29:00.778Z,10.25
2023-02-17T08:31:33.150Z,10.98
2023-02-17T08:34:01.994Z,12.60
2023-02-17T08:36:29.851Z,10.80
2023-02-17T08:38:57.181Z,13.25
2023-02-17T08:41:36.340Z,12.13
2023-02-17T08:44:08.967Z,10.48
2023-02-17T08:46:37.677Z,11.95
2023-02-17T08:49:06.197Z,11.98
2023-02-17T08:51:33.738Z,9.57
2023-02-17T08:54:01.960Z,14.57
2023-02-17T08:56:30.124Z,15.48
2023-02-17T08:58:57.289Z,18.20
2023-02-17T09:01:24.951Z,11.52
2023-02-17T09:03:54.467Z,12.63
2023-02-17T09:06:21.810Z,11.88
2023-02-17T09:08:49.434Z,10.60
2023-02-17T09:11:19.197Z,12.10
2023-02-17T09:13:46.483Z,11.55
2023-02-17T09:16:13.999Z,12.35
2023-02-17T09:18:41.226Z,13.32
2023-02-17T09:21:10.871Z,12.30
2023-02-17T09:23:38.307Z,10.52
2023-02-17T09:26:08.506Z,9.50
2023-02-17T09:28:36.560Z,11.93
2023-02-17T09:31:13.746Z,9.70
2023-02-17T09:33:44.267Z,11.43
2023-02-17T09:36:14.209Z,12.10
2023-02-17T09:38:42.277Z,11.00
2023-02-17T09:41:53.479Z,14.13
2023-02-17T09:44:26.768Z,12.93
2023-02-17T09:47:10.206Z,18.50
2023-02-17T09:49:45.213Z,13.20
2023-02-17T09:52:26.330Z,13.95
2023-02-17T09:55:05.706Z,9.80
2023-02-17T09:57:50.386Z,13.07
2023-02-17T10:00:25.642Z,14.70
2023-02-17T10:02:52.793Z,13.38
2023-02-17T10:05:24.527Z,13.15
2023-02-17T10:07:57.222Z,13.15
2023-02-17T10:10:29.262Z,10.40
2023-02-17T10:12:59.969Z,9.70
2023-02-17T10:15:31.948Z,9.90
2023-02-17T10:18:37.369Z,9.48
2023-02-17T10:21:25.156Z,14.05
2023-02-17T10:23:52.634Z,12.15
2023-02-17T10:26:39.464Z,11.10
2023-02-17T10:29:13.820Z,9.00
2023-02-17T10:32:08.665Z,8.50
2023-02-17T10:34:48.956Z,11.95
2023-02-17T10:37:47.492Z,8.27
2023-02-17T10:40:25.529Z,10.38
2023-02-17T10:42:56.846Z,7.60
2023-02-17T10:45:35.326Z,13.05
2023-02-17T10:48:12.569Z,5.60
2023-02-17T10:50:42.798Z,10.38
2023-02-17T10:53:17.708Z,10.20
2023-02-17T10:56:07.750Z,9.35
2023-02-17T10:58:59.640Z,11.05
2023-02-17T11:01:28.395Z,8.75
2023-02-17T11:04:05.069Z,6.72
2023-02-17T11:06:33.656Z,8.88
2023-02-17T11:09:08.525Z,8.02
2023-02-17T11:11:37.117Z,9.48
2023-02-17T11:14:13.805Z,12.45
2023-02-17T11:16:58.205Z,6.53
2023-02-17T11:19:27.551Z,9.70
2023-02-17T11:21:58.618Z,9.88
2023-02-17T11:24:27.769Z,8.25
2023-02-17T11:27:09.811Z,7.57
2023-02-17T11:29:37.685Z,8.40
2023-02-17T11:32:09.327Z,7.43
2023-02-17T11:34:39.288Z,8.98
2023-02-17T11:37:12.307Z,8.02
2023-02-17T11:39:45.600Z,5.13
2023-02-17T11:42:30.854Z,9.35
2023-02-17T11:44:59.985Z,8.05
2023-02-17T11:47:37.766Z,6.43
2023-02-17T11:50:40.827Z,6.70
2023-02-17T11:53:34.282Z,9.48
2023-02-17T11:56:06.676Z,7.85
2023-02-17T11:58:40.238Z,11.82
2023-02-17T12:01:18.276Z,7.00
2023-02-17T12:04:21.831Z,5.30
2023-02-17T12:07:07.211Z,6.15
2023-02-17T12:10:03.005Z,4.63
2023-02-17T12:12:38.756Z,5.00
2023-02-17T12:15:51.020Z,7.88
2023-02-17T12:18:34.109Z,4.78
2023-02-17T12:21:37.225Z,4.22
2023-02-17T12:24:16.269Z,3.50
2023-02-17T12:27:04.463Z,5.07
2023-02-17T12:29:43.885Z,4.80
2023-02-17T12:32:35.915Z,4.60
2023-02-17T12:35:30.677Z,7.82
2023-02-17T12:38:02.655Z,4.45
2023-02-17T12:40:52.953Z,5.80
2023-02-17T12:43:46.248Z,4.70
2023-02-17T12:46:35.349Z,4.35
2023-02-17T12:49:13.944Z,4.90
2023-02-17T12:51:53.259Z,3.03
2023-02-17T12:54:38.622Z,5.10
2023-02-17T12:57:17.422Z,4.80
2023-02-17T12:59:50.536Z,14.45
2023-02-17T13:02:28.361Z,5.47
2023-02-17T13:05:01.030Z,5.38
2023-02-17T13:07:46.376Z,7.45
2023-02-17T13:10:42.912Z,2.78
2023-02-17T13:13:29.937Z,8.00
2023-02-17T13:16:07.977Z,4.45
2023-02-17T13:18:41.042Z,3.45
2023-02-17T13:21:25.081Z,4.60
2023-02-17T13:24:34.832Z,8.57
2023-02-17T13:27:22.627Z,6.47
2023-02-17T13:30:06.273Z,4.90
2023-02-17T13:32:36.292Z,7.68
2023-02-17T13:35:26.076Z,4.55
2023-02-17T13:37:53.713Z,7.65
2023-02-17T13:40:20.683Z,4.32
2023-02-17T13:42:56.149Z,4.60
2023-02-17T13:45:33.925Z,4.75
2023-02-17T13:48:31.984Z,4.88
2023-02-17T13:51:07.680Z,6.82
2023-02-17T13:53:38.065Z,5.75
2023-02-17T13:56:07.333Z,5.55
2023-02-17T13:58:42.417Z,5.28
2023-02-17T14:01:20.857Z,6.00
2023-02-17T14:03:56.550Z,4.38
2023-02-17T14:06:36.332Z,7.63
2023-02-17T14:09:26.271Z,5.82
2023-02-17T14:11:55.653Z,3.72
2023-02-17T14:14:27.157Z,5.22
2023-02-17T14:17:03.284Z,3.58
2023-02-17T14:19:42.293Z,4.88
2023-02-17T14:22:29.214Z,7.82
2023-02-17T14:25:11.608Z,5.07
2023-02-17T14:27:50.390Z,6.75
2023-02-17T14:30:37.266Z,5.03
2023-02-17T14:33:18.946Z,4.22
2023-02-17T14:36:00.640Z,3.33
2023-02-17T14:38:29.443Z,4.78
2023-02-17T14:40:57.842Z,6.30
2023-02-17T14:43:25.736Z,7.68
2023-02-17T14:45:53.570Z,5.95
2023-02-17T14:48:21.380Z,12.63
2023-02-17T14:50:49.765Z,6.05
2023-02-17T14:53:30.052Z,4.53
2023-02-17T14:56:07.665Z,5.68
2023-02-17T14:58:35.483Z,8.13
2023-02-17T15:01:03.245Z,4.68
2023-02-17T15:03:30.820Z,9.50
2023-02-17T15:05:58.491Z,5.78
2023-02-17T15:08:32.413Z,12.07
2023-02-17T15:11:00.065Z,5.70
2023-02-17T15:13:27.245Z,4.47
2023-02-17T15:15:55.050Z,7.15
2023-02-17T15:18:22.543Z,2.45
2023-02-17T15:20:51.902Z,3.83
2023-02-17T15:23:21.840Z,7.20
2023-02-17T15:25:50.269Z,2.60
2023-02-17T15:28:21.285Z,5.43
2023-02-17T15:30:56.180Z,2.78
2023-02-17T15:33:25.498Z,2.28
2023-02-17T15:35:54.658Z,3.22
2023-02-17T15:38:23.969Z,5.38
2023-02-17T15:40:51.987Z,3.17
2023-02-17T15:43:23.485Z,3.70
2023-02-17T15:45:50.974Z,6.47
2023-02-17T15:48:27.549Z,3.30
2023-02-17T15:50:55.742Z,2.40
2023-02-17T15:53:22.987Z,4.63
2023-02-17T15:55:50.816Z,7.03
2023-02-17T15:58:21.869Z,3.67
2023-02-17T16:00:50.566Z,4.07
2023-02-17T16:03:18.807Z,4.70
2023-02-17T16:05:46.465Z,4.28
2023-02-17T16:08:13.674Z,4.00
2023-02-17T16:10:42.694Z,3.63
2023-02-17T16:13:14.816Z,3.47
2023-02-17T16:15:42.852Z,2.85
2023-02-17T16:18:24.790Z,9.35
2023-02-17T16:20:52.867Z,4.82
2023-02-17T16:23:20.504Z,3.92
2023-02-17T16:25:48.874Z,4.22
2023-02-17T16:28:19.410Z,5.20
2023-02-17T16:30:49.938Z,5.97
2023-02-17T16:33:18.395Z,3.47
2023-02-17T16:35:46.483Z,7.30
2023-02-17T16:38:23.104Z,7.25
2023-02-17T16:40:53.768Z,3.38
2023-02-17T16:43:28.394Z,5.40
2023-02-17T16:46:02.885Z,2.63
2023-02-17T16:48:33.299Z,4.78
2023-02-17T16:51:00.919Z,3.83
2023-02-17T16:53:29.058Z,5.35
2023-02-17T16:55:59.625Z,5.57
2023-02-17T16:58:28.112Z,5.50
2023-02-17T17:00:58.056Z,5.97
2023-02-17T17:03:25.776Z,5.63
2023-02-17T17:05:54.134Z,2.60
2023-02-17T17:08:22.427Z,4.78
2023-02-17T17:10:49.812Z,3.33
2023-02-17T17:13:17.791Z,5.35
2023-02-17T17:15:46.509Z,4.65
2023-02-17T17:18:22.766Z,3.13
2023-02-17T17:20:51.211Z,3.00
2023-02-17T17:23:20.276Z,2.80
2023-02-17T17:25:48.828Z,2.92
2023-02-17T17:28:18.998Z,3.10
2023-02-17T17:30:47.654Z,6.70
2023-02-17T17:33:15.944Z,3.15
2023-02-17T17:35:44.423Z,3.08
2023-02-17T17:38:20.227Z,3.22
2023-02-17T17:40:51.495Z,4.75
2023-02-17T17:43:21.842Z,4.90
2023-02-17T17:45:50.312Z,3.75
2023-02-17T17:48:18.555Z,2.08
2023-02-17T17:50:51.327Z,2.80
2023-02-17T17:53:19.331Z,2.67
2023-02-17T17:55:48.579Z,3.47
2023-02-17T17:58:17.851Z,2.40
2023-02-17T18:00:45.657Z,7.35
2023-02-17T18:03:13.273Z,4.15
2023-02-17T18:05:42.615Z,3.67
2023-02-17T18:08:10.640Z,4.80
2023-02-17T18:10:40.304Z,3.35
2023-02-17T18:13:10.140Z,2.90
2023-02-17T18:15:38.389Z,5.15
2023-02-17T18:18:07.061Z,4.15
2023-02-17T18:20:34.909Z,3.00
2023-02-17T18:23:02.833Z,4.78
2023-02-17T18:25:30.988Z,4.70
2023-02-17T18:27:59.432Z,3.38
2023-02-17T18:30:28.063Z,2.92
2023-02-17T18:32:57.377Z,2.78
2023-02-17T18:35:25.170Z,6.28
2023-02-17T18:37:53.266Z,3.42
2023-02-17T18:40:22.578Z,4.45
2023-02-17T18:42:50.794Z,5.70
2023-02-17T18:45:18.994Z,2.83
2023-02-17T18:47:46.923Z,4.47
2023-02-17T18:50:16.481Z,3.88
2023-02-17T18:52:45.554Z,3.80
2023-02-17T18:55:14.261Z,4.88
2023-02-17T18:57:45.407Z,3.75
2023-02-17T19:00:17.585Z,4.35
2023-02-17T19:02:45.575Z,4.30
2023-02-17T19:05:13.788Z,3.85
2023-02-17T19:07:41.704Z,3.75
2023-02-17T19:10:10.799Z,4.30
2023-02-17T19:12:41.073Z,4.50
2023-02-17T19:15:09.096Z,2.35
2023-02-17T19:17:37.064Z,4.53
2023-02-17T19:20:08.424Z,7.18
2023-02-17T19:22:38.240Z,2.63
2023-02-17T19:25:08.467Z,3.10
2023-02-17T19:27:36.080Z,2.10
2023-02-17T19:30:04.031Z,3.28
2023-02-17T19:32:32.099Z,6.30
2023-02-17T19:34:59.902Z,2.20
2023-02-17T19:37:28.535Z,2.85
2023-02-17T19:39:57.763Z,4.32
2023-02-17T19:42:25.201Z,4.90
2023-02-17T19:44:52.983Z,4.78
2023-02-17T19:47:21.113Z,7.03
2023-02-17T19:49:49.193Z,2.85
2023-02-17T19:52:18.801Z,3.25
2023-02-17T19:54:49.483Z,4.85
2023-02-17T19:57:18.961Z,3.25
2023-02-17T19:59:46.863Z,3.50
2023-02-17T20:02:16.665Z,3.25
2023-02-17T20:04:45.736Z,4.07
2023-02-17T20:07:15.554Z,3.30
2023-02-17T20:09:43.899Z,8.10
2023-02-17T20:12:11.580Z,6.18
2023-02-17T20:14:39.731Z,3.58
2023-02-17T20:17:07.742Z,4.05
2023-02-17T20:19:41.864Z,3.20
2023-02-17T20:22:10.124Z,4.60
2023-02-17T20:24:39.333Z,3.25
2023-02-17T20:27:07.419Z,6.35
2023-02-17T20:29:37.050Z,2.38
2023-02-17T20:32:09.879Z,2.80
2023-02-17T20:34:42.263Z,3.40
2023-02-17T20:37:15.523Z,2.70
2023-02-17T20:39:44.967Z,2.88
2023-02-17T20:42:14.955Z,2.60
2023-02-17T20:44:43.542Z,1.67
2023-02-17T20:47:12.764Z,3.58
2023-02-17T20:49:40.452Z,3.30
2023-02-17T20:52:09.690Z,2.00
2023-02-17T20:54:39.704Z,2.50
2023-02-17T20:57:15.330Z,2.75
2023-02-17T20:59:43.161Z,4.50
2023-02-17T21:02:12.043Z,4.18
2023-02-17T21:04:41.714Z,3.05
2023-02-17T21:07:13.678Z,3.40
2023-02-17T21:09:41.443Z,2.47
2023-02-17T21:12:09.586Z,1.75
2023-02-17T21:14:37.450Z,1.63
2023-02-17T21:17:05.467Z,1.95
2023-02-17T21:19:33.885Z,3.30
2023-02-17T21:22:01.329Z,1.92
2023-02-17T21:24:29.083Z,2.38
2023-02-17T21:26:56.645Z,2.45
2023-02-17T21:29:25.539Z,3.58
2023-02-17T21:31:53.895Z,3.40
2023-02-17T21:34:21.177Z,2.47
2023-02-17T21:36:48.449Z,3.05
2023-02-17T21:39:16.077Z,3.35
2023-02-17T21:41:43.426Z,4.60
2023-02-17T21:44:32.854Z,1.80
2023-02-17T21:47:00.144Z,2.83
2023-02-17T21:49:27.176Z,9.27
2023-02-17T21:51:54.740Z,1.30
2023-02-17T21:54:22.372Z,4.65
2023-02-17T21:56:49.863Z,3.35
2023-02-17T21:59:17.153Z,1.40
2023-02-17T22:01:44.223Z,1.80
2023-02-17T22:04:11.762Z,3.00
2023-02-17T22:06:42.332Z,2.00
2023-02-17T22:09:12.022Z,2.10
2023-02-17T22:11:41.985Z,2.03
2023-02-17T22:14:13.708Z,1.73
2023-02-17T22:16:41.224Z,1.65
2023-02-17T22:19:10.980Z,2.15
2023-02-17T22:21:39.000Z,1.38
2023-02-17T22:24:06.401Z,1.98
2023-02-17T22:26:33.499Z,2.25
2023-02-17T22:29:00.730Z,3.72
2023-02-17T22:31:29.746Z,2.42
2023-02-17T22:33:58.793Z,1.40
2023-02-17T22:36:27.779Z,3.05
2023-02-17T22:38:55.308Z,1.20
2023-02-17T22:41:24.554Z,1.30
2023-02-17T22:43:52.331Z,1.30
2023-02-17T22:46:21.883Z,0.80
2023-02-17T22:48:51.429Z,1.95
2023-02-17T22:51:21.314Z,1.60
2023-02-17T22:53:49.125Z,1.23
2023-02-17T22:56:16.362Z,1.27
2023-02-17T22:58:43.442Z,1.30
2023-02-17T23:01:14.006Z,1.10
2023-02-17T23:03:41.643Z,2.33
2023-02-17T23:06:18.186Z,2.90
2023-02-17T23:08:46.216Z,1.15
2023-02-17T23:11:15.547Z,4.32
2023-02-17T23:13:44.066Z,1.13
2023-02-17T23:16:18.468Z,1.15
2023-02-17T23:18:45.547Z,2.83
2023-02-17T23:21:13.538Z,1.27
2023-02-17T23:23:40.593Z,1.23
2023-02-17T23:26:08.000Z,1.70
2023-02-17T23:28:35.305Z,0.70
2023-02-17T23:31:02.404Z,1.10
2023-02-17T23:33:29.418Z,1.42
2023-02-17T23:35:56.479Z,1.50
2023-02-17T23:38:23.529Z,3.45
2023-02-17T23:40:52.472Z,0.80
2023-02-17T23:43:20.488Z,2.90
2023-02-17T23:45:47.545Z,0.93
2023-02-17T23:48:15.795Z,1.17
2023-02-17T23:50:43.447Z,2.55
2023-02-17T23:53:10.562Z,0.80
2023-02-17T23:55:37.557Z,2.88
2023-02-17T23:58:04.681Z,1.00
